This is the latest recevied weather packets stored in our database for station/object W5HKR. If no packets are shown the sender has not sent any weather packets the latest 10 day(s).
| Time | Temp. | Humidity | Pressure | Rain* | Wind** | Luminosity | Snow |
|---|---|---|---|---|---|---|---|
| 1777693952 | 12.78° C | 83% | 989 hPa | 0 mm | - | - | - |
| 1777693699 | 12.78° C | 83% | 988.9 hPa | 0 mm | - | - | - |
| 1777693400 | 12.78° C | 83% | 989.1 hPa | 0 mm | - | - | - |
| 1777693099 | 18.33° C | 91% | 990.6 hPa | 0 mm | - | - | - |
| 1777692871 | 12.78° C | 82% | 988.7 hPa | 0 mm | - | - | - |
| 1777692800 | 18.33° C | 91% | 990.6 hPa | 0 mm | - | - | - |
| 1777692499 | 18.33° C | 91% | 990.6 hPa | 0 mm | - | - | - |
| 1777692199 | 12.78° C | 83% | 988.8 hPa | 0 mm | - | - | - |
| 1777691899 | 18.33° C | 91% | 990.6 hPa | 0 mm | - | - | - |
| 1777691791 | 12.78° C | 84% | 988.3 hPa | 0 mm | - | - | - |
| 1777691600 | 12.78° C | 85% | 988.5 hPa | 0 mm | - | - | - |
| 1777691300 | 12.78° C | 85% | 988.5 hPa | 0 mm | - | - | - |
| 1777690998 | 18.33° C | 91% | 990.6 hPa | 0 mm | - | - | - |
| 1777690699 | 18.33° C | 91% | 990.6 hPa | 0 mm | - | - | - |
| 1777690398 | 18.33° C | 91% | 990.6 hPa | 0 mm | - | - | - |
| 1777690099 | 18.33° C | 91% | 990.6 hPa | 0 mm | - | - | - |
| 1777689799 | 18.33° C | 91% | 990.6 hPa | 0 mm | - | - | - |
| 1777689630 | 18.33° C | 91% | 990.6 hPa | 0 mm | - | - | - |
| 1777689500 | 18.33° C | 91% | 990.6 hPa | 0 mm | - | - | - |
| 1777689200 | 13.33° C | 85% | 987.8 hPa | 0 mm | - | - | - |
| 1777688900 | 13.33° C | 85% | 987.5 hPa | 0 mm | - | - | - |
| 1777688600 | 18.33° C | 91% | 990.6 hPa | 0 mm | - | - | - |
| 1777688551 | 18.33° C | 91% | 990.6 hPa | 0 mm | - | - | - |
| 1777687700 | 18.33° C | 91% | 990.6 hPa | 0 mm | - | - | - |
* Rain latest hour (hover to see other rain measurements)
** Current wind speed in m/s (hover to see current wind gust speed)